首页
METAR-TAF:

METAR-TAF

机场 :

阿拉木图国际机场

阿拉木圖, 哈萨克斯坦

纬度: 43-14N, 经度: 076-56E, 海拔: 847米

当前天气观测

该预报发布于18分钟前的08:30 UTC
风速10节,风向西
温度 3°C
湿度 70%
气压 1003 hPa
能見度: 4600
散云层高于10000英尺
多云层高于20000英尺
轻雾, 烟

METAR: UAAA 170830Z 28005MPS 4600 BR FU SCT100 BKN200 03/M02 Q1003 R05L/CLRD65 R05R/1///60 NOSIG

时间: 14:48 (08:48 UTC)

预报

该预报发布于3小时和48分钟前的05:00 UTC
预报有效从17日的 06点(UTC)到 18日的 06点(UTC)
风速10节,风向西南
能見度: 3100
多云层高于1500英尺, 积雨云.
多云层高于10000英尺
轻雾, 烟
短暂存在
从 17日的 06点(UTC)到 17日的 12点(UTC)
风速8节,风向北转西北
短暂存在
从 17日的 12点(UTC)到 17日的 15点(UTC)
能見度: 1000
短暂存在
从 17日的 15点(UTC)到 17日的 20点(UTC)
风速16节,风向西
能見度: 0500
冻雾, 烟
成为
从 17日的 20点(UTC)到 17日的 21点(UTC)
风速8节,风向西北
能見度: 1500
多云层高于1100英尺, 积雨云.
阴天层高于10000英尺
轻雾
短暂存在
从 17日的 20点(UTC)到 18日的 06点(UTC)
风速10节,风向西转西南
能見度: 0400
多云层高于300英尺
阴天层高于1100英尺, 积雨云.
小阵雪, 雨, 冻雾

TAF: UAAA 170500Z 1706/1806 22005MPS 3100 BR FU BKN015CB BKN100 TX03/1708Z TNM02/1801Z TEMPO 1706/1712 34004MPS TEMPO 1712/1715 1000 TEMPO 1715/1720 26008MPS 0500 FZFG FU BECMG 1720/1721 32004MPS 1500 BR BKN011CB OVC100 TEMPO 1720/1806 24005MPS 0400 -SHSNRA FZFG BKN003 OVC011CB

超过4000个机场的气象观测和天气预报(METAR&TAF报告)。

可查询的气象台以黄色和红色小点在地图上表示。

将鼠标移到小点上方,可查看气象台名称。

然后点击查看天气观测和预报。

如需切换地图:点击带黑十字的绿色按钮放大地图;点击带横线的绿色按钮缩小地图;或者点击绿色箭头查看邻近地区的地图。


METAR-TAF: